Time;durP1;ratioP1;P1;durP2;ratioP2;P2;SDS_P1;SDS_P2;PMS_P1;PMS_P2;Temp;Humidity;BMP_temperature;BMP_pressure;BME280_temperature;BME280_humidity;BME280_pressure;Samples;Min_cycle;Max_cycle;Signal;HPM_P1;HPM_P2
2022/09/18 00:01:46;;;;;;;8.52;4.13;;;27.10;99.90;;;;;;4945820;29;20091;-56
2022/09/18 00:04:13;;;;;;;9.23;4.38;;;27.10;99.90;;;;;;4949628;28;20023;-60
2022/09/18 00:06:40;;;;;;;;;;;27.10;99.90;;;;;;4954746;28;20023;-58
2022/09/18 00:09:08;;;;;;;7.17;3.70;;;27.20;99.90;;;;;;4962052;28;19968;-58
2022/09/18 00:11:38;;;;;;;9.68;3.88;;;27.20;99.90;;;;;;4959234;28;20031;-59
2022/09/18 00:14:06;;;;;;;5.65;3.53;;;27.20;99.90;;;;;;4951877;29;20432;-57
2022/09/18 00:16:32;;;;;;;5.72;3.83;;;27.20;99.90;;;;;;4947891;29;20035;-60
2022/09/18 00:18:58;;;;;;;7.20;3.95;;;27.20;99.90;;;;;;4953743;28;20035;-56
2022/09/18 00:21:24;;;;;;;9.32;3.85;;;27.30;99.90;;;;;;4953722;29;20494;-58
2022/09/18 00:23:53;;;;;;;11.80;3.40;;;27.30;99.90;;;;;;4954262;28;20046;-58
2022/09/18 00:26:19;;;;;;;8.13;3.10;;;27.30;99.90;;;;;;4953934;29;20027;-57
2022/09/18 00:28:45;;;;;;;7.97;3.67;;;27.30;99.90;;;;;;4953536;29;20031;-60
2022/09/18 00:31:20;;;;;;;7.95;3.22;;;27.20;99.90;;;;;;4954174;29;20039;-57
2022/09/18 00:33:46;;;;;;;6.80;2.90;;;27.20;99.90;;;;;;4953641;28;20392;-56
2022/09/18 00:36:15;;;;;;;9.90;3.40;;;27.20;99.90;;;;;;4958642;28;20035;-57
2022/09/18 00:38:42;;;;;;;8.23;2.42;;;27.20;99.90;;;;;;4961159;28;20038;-57
2022/09/18 00:41:13;;;;;;;9.93;2.90;;;27.30;99.90;;;;;;4953898;29;20114;-58
2022/09/18 00:43:40;;;;;;;7.90;4.15;;;27.30;99.90;;;;;;4953424;28;20034;-55
2022/09/18 00:46:27;;;;;;;9.10;4.22;;;27.30;99.90;;;;;;4953653;29;20031;-55
2022/09/18 00:49:19;;;;;;;;;;;27.30;99.90;;;;;;4953950;29;20030;-56
2022/09/18 00:51:48;;;;;;;2.83;2.33;;;27.20;99.90;;;;;;4950646;29;20290;-56
2022/09/18 00:54:24;;;;;;;7.53;3.10;;;27.30;99.90;;;;;;4953693;29;20043;-57
2022/09/18 00:56:54;;;;;;;7.20;3.95;;;27.30;99.90;;;;;;4955362;28;20030;-57
2022/09/18 00:59:28;;;;;;;12.45;2.88;;;27.30;99.90;;;;;;4964591;28;20480;-57
2022/09/18 01:01:56;;;;;;;5.38;2.97;;;27.30;99.90;;;;;;4953250;29;20130;-58
2022/09/18 01:04:22;;;;;;;8.80;4.25;;;27.20;99.90;;;;;;4953215;29;20020;-58
2022/09/18 01:07:28;;;;;;;8.20;3.33;;;27.20;99.90;;;;;;4953337;29;20038;-59
2022/09/18 01:10:24;;;;;;;6.73;3.63;;;27.20;99.90;;;;;;4953491;28;20070;-59
2022/09/18 01:13:07;;;;;;;9.00;3.60;;;27.20;99.90;;;;;;4952444;28;20027;-60
2022/09/18 01:15:33;;;;;;;10.45;4.45;;;27.20;99.90;;;;;;4953161;29;20069;-60
2022/09/18 01:18:17;;;;;;;6.70;3.20;;;27.30;99.90;;;;;;4959527;28;20160;-57
2022/09/18 01:21:11;;;;;;;8.23;3.67;;;27.20;99.90;;;;;;4957678;28;20035;-62
2022/09/18 01:23:58;;;;;;;11.85;4.35;;;27.20;99.90;;;;;;4953178;28;20593;-61
2022/09/18 01:26:30;;;;;;;9.07;4.28;;;27.20;99.90;;;;;;4952533;29;20041;-59
2022/09/18 01:29:24;;;;;;;10.02;3.63;;;27.20;99.90;;;;;;4951071;28;20102;-57
2022/09/18 01:31:55;;;;;;;7.20;2.95;;;27.20;99.90;;;;;;4942053;29;20047;-56
2022/09/18 01:34:27;;;;;;;7.13;4.15;;;27.20;99.90;;;;;;4951382;28;20020;-60
2022/09/18 01:37:05;;;;;;;8.93;3.88;;;27.20;99.90;;;;;;4951808;29;20395;-58
2022/09/18 01:39:38;;;;;;;8.68;3.42;;;27.20;99.90;;;;;;4951718;29;20027;-59
2022/09/18 01:42:07;;;;;;;10.27;3.42;;;27.20;99.90;;;;;;4956364;28;20042;-59
2022/09/18 01:44:36;;;;;;;9.20;3.55;;;27.20;99.90;;;;;;4960941;28;20032;-59
2022/09/18 01:47:07;;;;;;;8.35;3.63;;;27.10;99.90;;;;;;4952769;29;20400;-58
2022/09/18 01:49:41;;;;;;;7.70;3.15;;;27.10;99.90;;;;;;4952732;28;20098;-58
2022/09/18 01:52:07;;;;;;;9.77;3.22;;;27.10;99.90;;;;;;4952839;29;20027;-58
2022/09/18 01:54:39;;;;;;;5.90;2.53;;;27.10;99.90;;;;;;4952831;29;20027;-58
2022/09/18 01:57:27;;;;;;;9.90;2.70;;;27.00;99.90;;;;;;4952439;29;20106;-58
2022/09/18 01:59:59;;;;;;;7.18;3.15;;;27.00;99.90;;;;;;4953209;28;20560;-59
2022/09/18 02:02:44;;;;;;;5.38;2.70;;;27.00;99.90;;;;;;4961812;28;20055;-58
2022/09/18 02:05:17;;;;;;;5.28;2.00;;;27.00;99.90;;;;;;4950611;29;20073;-59
2022/09/18 02:08:37;;;;;;;7.72;2.50;;;27.00;99.90;;;;;;4952701;29;20035;-58
2022/09/18 02:11:22;;;;;;;5.00;2.08;;;27.00;99.90;;;;;;4931214;28;20043;-60
2022/09/18 02:14:12;;;;;;;7.82;2.90;;;27.00;99.90;;;;;;4952543;29;20456;-57
2022/09/18 02:16:46;;;;;;;4.65;2.47;;;27.00;99.90;;;;;;4942407;29;20030;-58
2022/09/18 02:19:27;;;;;;;6.13;2.35;;;27.00;99.90;;;;;;4952132;29;20020;-58
2022/09/18 02:21:56;;;;;;;4.43;1.90;;;27.00;99.90;;;;;;4958431;28;20039;-56
2022/09/18 02:24:28;;;;;;;9.43;2.28;;;27.00;99.90;;;;;;4961630;28;20514;-56
2022/09/18 02:26:55;;;;;;;5.72;2.63;;;27.00;99.90;;;;;;4954668;29;20893;-57
2022/09/18 02:29:23;;;;;;;5.78;1.90;;;27.00;99.90;;;;;;4956169;29;20027;-58
2022/09/18 02:31:50;;;;;;;4.60;2.15;;;27.00;99.90;;;;;;4955945;29;20031;-58
2022/09/18 02:34:17;;;;;;;5.32;2.45;;;27.00;99.90;;;;;;4951673;28;20061;-58
2022/09/18 02:37:10;;;;;;;5.40;2.00;;;27.00;99.90;;;;;;4951855;29;20035;-59
2022/09/18 02:39:53;;;;;;;7.35;2.13;;;27.00;99.90;;;;;;4956189;29;20023;-56
2022/09/18 02:42:59;;;;;;;6.40;2.22;;;27.00;99.90;;;;;;4955763;29;20027;-56
2022/09/18 02:46:05;;;;;;;5.70;1.80;;;27.00;99.90;;;;;;4935129;28;20035;-59
2022/09/18 02:48:59;;;;;;;6.90;1.67;;;27.00;99.90;;;;;;4955685;28;20039;-59
2022/09/18 02:51:25;;;;;;;5.32;1.73;;;27.00;99.90;;;;;;4936565;28;20031;-58
2022/09/18 02:54:05;;;;;;;6.63;2.40;;;27.00;99.90;;;;;;4955854;28;20019;-59
2022/09/18 02:56:48;;;;;;;5.28;1.65;;;27.00;99.90;;;;;;4955068;29;20049;-58
2022/09/18 03:01:54;;;;;;;6.22;1.73;;;27.00;99.90;;;;;;4934743;29;20114;-48
2022/09/18 03:04:23;;;;;;;6.60;1.90;;;27.00;99.90;;;;;;4936649;29;20051;-48
2022/09/18 03:06:49;;;;;;;7.53;1.95;;;27.00;99.90;;;;;;4936442;29;20023;-48
2022/09/18 03:09:15;;;;;;;4.90;1.65;;;27.00;99.90;;;;;;4936264;29;20023;-48
2022/09/18 03:11:41;;;;;;;3.70;1.73;;;27.00;99.90;;;;;;4935308;29;20034;-48
2022/09/18 03:14:07;;;;;;;5.75;2.45;;;27.00;99.90;;;;;;4936097;29;20028;-48
2022/09/18 03:16:33;;;;;;;3.90;1.67;;;27.00;99.90;;;;;;4936288;29;20554;-48
2022/09/18 03:18:59;;;;;;;4.80;1.80;;;26.90;99.90;;;;;;4935438;29;20035;-48
2022/09/18 03:21:26;;;;;;;11.52;2.80;;;27.00;99.90;;;;;;4933028;29;20035;-48
2022/09/18 03:23:52;;;;;;;7.23;1.70;;;27.00;99.90;;;;;;4936195;29;20027;-48
2022/09/18 03:26:18;;;;;;;5.18;2.28;;;26.90;99.90;;;;;;4936169;29;20588;-48
2022/09/18 03:28:43;;;;;;;6.63;2.00;;;27.00;99.90;;;;;;4935834;29;20031;-48
2022/09/18 03:31:10;;;;;;;5.13;1.90;;;26.90;99.90;;;;;;4935858;29;20032;-48
2022/09/18 03:33:36;;;;;;;4.63;1.95;;;26.90;99.90;;;;;;4935842;29;20032;-48
2022/09/18 03:36:04;;;;;;;4.60;1.90;;;27.00;99.90;;;;;;4935332;29;20091;-48
2022/09/18 03:38:31;;;;;;;6.38;1.88;;;27.00;99.90;;;;;;4935542;29;20414;-49
2022/09/18 03:40:56;;;;;;;6.40;2.47;;;26.90;99.90;;;;;;4935614;29;20556;-48
2022/09/18 03:43:23;;;;;;;5.15;2.55;;;26.90;99.90;;;;;;4934497;29;20065;-48
2022/09/18 03:45:49;;;;;;;5.15;2.10;;;26.90;99.90;;;;;;4935512;29;20036;-49
2022/09/18 03:48:14;;;;;;;7.53;2.42;;;26.90;99.90;;;;;;4935658;29;20019;-48
2022/09/18 03:50:40;;;;;;;4.20;1.92;;;26.80;99.90;;;;;;4935506;29;20028;-49
2022/09/18 03:53:07;;;;;;;6.88;2.53;;;26.80;99.90;;;;;;4934824;29;20062;-49
2022/09/18 03:55:34;;;;;;;5.70;2.47;;;26.90;99.90;;;;;;4933740;29;20043;-49
2022/09/18 03:58:00;;;;;;;4.97;1.80;;;26.90;99.90;;;;;;4935593;29;20079;-49
2022/09/18 04:00:26;;;;;;;6.10;2.65;;;26.90;99.90;;;;;;4935800;29;20141;-48
2022/09/18 04:02:52;;;;;;;4.40;2.03;;;26.90;99.90;;;;;;4936278;29;20484;-49
2022/09/18 04:05:18;;;;;;;5.72;2.42;;;26.90;99.90;;;;;;4933575;29;20100;-49
2022/09/18 04:07:44;;;;;;;4.65;1.90;;;26.80;99.90;;;;;;4935338;29;20480;-48
2022/09/18 04:10:09;;;;;;;5.78;2.10;;;26.80;99.90;;;;;;4935397;29;20424;-48
2022/09/18 04:12:35;;;;;;;5.88;1.80;;;26.80;99.90;;;;;;4935391;29;20038;-48
2022/09/18 04:15:01;;;;;;;9.18;2.15;;;26.80;99.90;;;;;;4935352;29;20032;-48
2022/09/18 04:17:27;;;;;;;6.93;2.63;;;26.80;99.90;;;;;;4935289;29;20392;-48
2022/09/18 04:19:53;;;;;;;5.55;1.90;;;26.80;99.90;;;;;;4934150;29;20031;-48
2022/09/18 04:22:20;;;;;;;3.80;1.80;;;26.80;99.90;;;;;;4935080;29;20094;-48
2022/09/18 04:24:46;;;;;;;10.60;2.72;;;26.80;99.90;;;;;;4935140;29;20047;-49
2022/09/18 04:27:12;;;;;;;3.65;1.70;;;26.80;99.90;;;;;;4935105;29;20476;-48
2022/09/18 04:29:37;;;;;;;8.98;3.20;;;26.80;99.90;;;;;;4934946;29;20036;-48
2022/09/18 04:32:04;;;;;;;4.10;2.40;;;26.80;99.90;;;;;;4934899;29;20167;-49
2022/09/18 04:34:30;;;;;;;4.60;2.25;;;26.80;99.90;;;;;;4935022;29;20487;-49
2022/09/18 04:36:56;;;;;;;22.67;2.33;;;26.80;99.90;;;;;;4935143;29;20039;-49
2022/09/18 04:39:21;;;;;;;6.00;2.05;;;26.80;99.90;;;;;;4934817;29;20050;-49
2022/09/18 04:41:49;;;;;;;6.55;2.38;;;26.80;99.90;;;;;;4934720;29;20040;-49
2022/09/18 04:44:15;;;;;;;6.72;2.25;;;26.80;99.90;;;;;;4933458;29;20024;-49
2022/09/18 04:46:40;;;;;;;8.38;2.33;;;26.70;99.90;;;;;;4933972;29;20531;-49
2022/09/18 04:49:06;;;;;;;6.07;1.88;;;26.70;99.90;;;;;;4934803;29;20032;-49
2022/09/18 04:51:32;;;;;;;4.70;2.20;;;26.70;99.90;;;;;;4934602;29;20130;-49
2022/09/18 04:53:58;;;;;;;5.65;1.90;;;26.70;99.90;;;;;;4934829;29;20531;-49
2022/09/18 04:56:23;;;;;;;6.53;1.98;;;26.70;99.90;;;;;;4934539;29;20385;-49
2022/09/18 04:58:50;;;;;;;13.68;2.30;;;26.70;99.90;;;;;;4934519;29;20036;-49
2022/09/18 05:01:16;;;;;;;5.18;2.40;;;26.70;99.90;;;;;;4934182;29;20055;-48
2022/09/18 05:03:41;;;;;;;4.22;2.08;;;26.70;99.90;;;;;;4934531;29;20035;-49
2022/09/18 05:06:07;;;;;;;5.40;2.08;;;26.70;99.90;;;;;;4934366;29;20381;-49
2022/09/18 05:08:33;;;;;;;8.88;1.92;;;26.70;99.90;;;;;;4934457;29;20388;-48
2022/09/18 05:10:59;;;;;;;7.80;2.00;;;26.70;99.90;;;;;;4934552;29;20062;-48
2022/09/18 05:13:25;;;;;;;6.72;1.92;;;26.70;99.90;;;;;;4934527;29;20028;-48
2022/09/18 05:15:55;;;;;;;6.35;2.17;;;26.70;99.90;;;;;;4934388;29;20082;-48
2022/09/18 05:18:22;;;;;;;6.22;1.85;;;26.70;99.90;;;;;;4934357;29;20139;-48
2022/09/18 05:20:47;;;;;;;7.20;2.20;;;26.70;99.90;;;;;;4934089;29;20127;-48
2022/09/18 05:23:14;;;;;;;8.80;2.53;;;26.70;99.90;;;;;;4934249;29;20158;-48
2022/09/18 05:25:41;;;;;;;3.92;2.00;;;26.70;99.90;;;;;;4934241;29;20042;-48
2022/09/18 05:28:08;;;;;;;5.57;2.38;;;26.60;99.90;;;;;;4934061;29;20062;-48
2022/09/18 05:30:34;;;;;;;3.78;2.17;;;26.60;99.90;;;;;;4934221;29;20068;-48
2022/09/18 05:33:02;;;;;;;11.00;1.77;;;26.60;99.90;;;;;;4934352;29;20056;-48
2022/09/18 05:35:31;;;;;;;5.22;2.50;;;26.60;99.90;;;;;;4934138;29;20095;-48
2022/09/18 05:37:58;;;;;;;8.23;2.60;;;26.60;99.90;;;;;;4934261;29;20031;-48
2022/09/18 05:40:29;;;;;;;5.50;2.47;;;26.60;99.90;;;;;;4933890;29;20039;-48
2022/09/18 05:42:54;;;;;;;6.63;2.17;;;26.60;99.90;;;;;;4934102;29;20028;-48
2022/09/18 05:45:21;;;;;;;6.75;2.15;;;26.60;99.90;;;;;;4933939;29;20030;-48
2022/09/18 05:47:58;;;;;;;13.82;1.92;;;26.60;99.90;;;;;;4933857;29;20043;-48
2022/09/18 05:50:25;;;;;;;5.35;2.55;;;26.60;99.90;;;;;;4933755;29;20024;-49
2022/09/18 05:53:08;;;;;;;8.13;2.85;;;26.50;99.90;;;;;;4934162;29;20032;-49
2022/09/18 05:55:34;;;;;;;8.82;2.35;;;26.50;99.90;;;;;;4933876;29;20053;-49
2022/09/18 05:58:01;;;;;;;6.43;2.30;;;26.50;99.90;;;;;;4934209;29;20028;-48
2022/09/18 06:00:29;;;;;;;6.32;2.40;;;26.50;99.90;;;;;;4937602;29;20052;-48
2022/09/18 06:03:03;;;;;;;4.80;2.03;;;26.50;99.90;;;;;;4937715;29;20462;-49
2022/09/18 06:05:33;;;;;;;6.03;2.10;;;26.50;99.90;;;;;;4937756;29;20036;-48
2022/09/18 06:08:00;;;;;;;4.68;1.95;;;26.50;99.90;;;;;;4937691;29;20031;-48
2022/09/18 06:10:28;;;;;;;9.95;2.13;;;26.50;99.90;;;;;;4937531;29;20031;-49
2022/09/18 06:13:05;;;;;;;5.03;2.67;;;26.50;99.90;;;;;;4937486;29;20039;-49
2022/09/18 06:15:31;;;;;;;6.85;2.70;;;26.50;99.90;;;;;;4937599;29;20042;-48
2022/09/18 06:17:57;;;;;;;6.27;2.43;;;26.50;99.90;;;;;;4937434;29;20059;-49
2022/09/18 06:20:23;;;;;;;5.80;2.22;;;26.50;99.90;;;;;;4937330;29;20277;-49
2022/09/18 06:22:49;;;;;;;5.50;2.10;;;26.50;99.90;;;;;;4936038;29;20031;-49
2022/09/18 06:25:18;;;;;;;4.50;2.55;;;26.50;99.90;;;;;;4937289;29;20063;-49
2022/09/18 06:27:44;;;;;;;10.73;2.65;;;26.50;99.90;;;;;;4937263;29;20027;-50
2022/09/18 06:30:10;;;;;;;4.50;2.20;;;26.50;99.90;;;;;;4937376;29;20412;-48
2022/09/18 06:32:36;;;;;;;5.78;2.28;;;26.50;99.90;;;;;;4935931;29;20484;-49
2022/09/18 06:35:01;;;;;;;4.57;2.28;;;26.50;99.90;;;;;;4937070;29;20034;-49
2022/09/18 06:37:27;;;;;;;5.57;1.95;;;26.50;99.90;;;;;;4936978;29;20034;-48
2022/09/18 06:39:53;;;;;;;5.28;2.72;;;26.50;99.90;;;;;;4936958;29;20019;-55
2022/09/18 06:42:19;;;;;;;5.07;2.90;;;26.50;99.90;;;;;;4936759;29;20642;-48
2022/09/18 06:44:44;;;;;;;6.68;2.67;;;26.50;99.90;;;;;;4936700;29;20046;-48
2022/09/18 06:47:10;;;;;;;6.80;2.53;;;26.50;99.90;;;;;;4936814;29;20039;-49
2022/09/18 06:49:36;;;;;;;8.10;3.40;;;26.50;99.90;;;;;;4937057;29;20119;-49
2022/09/18 06:52:02;;;;;;;8.68;3.83;;;26.50;99.90;;;;;;4936931;29;20015;-49
2022/09/18 06:54:27;;;;;;;7.20;2.90;;;26.50;99.90;;;;;;4936725;29;20031;-48
2022/09/18 06:56:53;;;;;;;10.57;3.45;;;26.50;99.90;;;;;;4936671;29;20472;-48
2022/09/18 06:59:19;;;;;;;5.35;3.03;;;26.50;99.90;;;;;;4936642;29;20102;-48
2022/09/18 07:01:47;;;;;;;7.00;2.65;;;26.50;99.90;;;;;;4936366;29;20052;-49
2022/09/18 07:04:14;;;;;;;5.38;2.33;;;26.50;99.90;;;;;;4936568;29;20024;-49
2022/09/18 07:06:42;;;;;;;8.55;2.45;;;26.60;99.90;;;;;;4936616;29;20400;-48
2022/09/18 07:09:08;;;;;;;7.43;2.67;;;26.60;99.90;;;;;;4935632;29;20059;-48
2022/09/18 07:11:35;;;;;;;4.68;2.30;;;26.60;99.90;;;;;;4936800;29;20441;-48
2022/09/18 07:14:03;;;;;;;5.37;2.10;;;26.60;99.90;;;;;;4936684;29;20114;-49
2022/09/18 07:16:29;;;;;;;3.42;1.90;;;26.70;99.90;;;;;;4936392;29;20277;-48
2022/09/18 07:18:55;;;;;;;5.80;2.45;;;26.80;99.90;;;;;;4936332;29;20425;-48
2022/09/18 07:21:21;;;;;;;6.95;2.83;;;26.80;99.90;;;;;;4936324;29;20388;-48
2022/09/18 07:23:46;;;;;;;5.07;2.50;;;26.80;99.90;;;;;;4936221;29;20090;-48
2022/09/18 07:26:13;;;;;;;5.93;1.45;;;26.80;99.90;;;;;;4936044;29;20074;-48
2022/09/18 07:28:38;;;;;;;6.20;3.22;;;26.90;99.90;;;;;;4936074;29;20322;-48
2022/09/18 07:31:05;;;;;;;6.63;2.20;;;26.90;99.90;;;;;;4936212;29;20048;-49
2022/09/18 07:33:31;;;;;;;3.42;1.90;;;26.90;99.90;;;;;;4936050;29;20046;-48
2022/09/18 07:36:01;;;;;;;3.35;1.98;;;26.90;99.90;;;;;;4936002;29;20111;-49
2022/09/18 07:38:26;;;;;;;5.72;2.40;;;27.00;99.90;;;;;;4936026;29;20370;-48
2022/09/18 07:40:52;;;;;;;3.75;1.73;;;27.00;99.90;;;;;;4936008;29;20039;-49
2022/09/18 07:43:18;;;;;;;3.20;2.20;;;27.10;99.90;;;;;;4935940;29;20039;-49
2022/09/18 07:45:44;;;;;;;5.80;2.72;;;27.10;99.90;;;;;;4935982;29;20123;-49
2022/09/18 07:48:10;;;;;;;4.00;2.30;;;27.20;99.90;;;;;;4935903;29;20068;-48
2022/09/18 07:50:36;;;;;;;8.13;2.50;;;27.20;99.90;;;;;;4934604;29;20032;-48
2022/09/18 07:53:04;;;;;;;5.18;2.35;;;27.20;99.90;;;;;;4935672;29;20039;-49
2022/09/18 07:55:30;;;;;;;3.80;2.25;;;27.20;99.90;;;;;;4935564;29;20024;-49
2022/09/18 07:57:58;;;;;;;5.73;2.40;;;27.20;99.90;;;;;;4935459;29;20032;-49
2022/09/18 08:00:26;;;;;;;4.28;1.90;;;27.30;99.90;;;;;;4935252;29;20055;-49
2022/09/18 08:03:12;;;;;;;;;;;27.30;99.90;;;;;;4935854;29;20079;-48
2022/09/18 08:05:39;;;;;;;5.20;2.42;;;27.30;99.90;;;;;;4935170;29;19913;-48
2022/09/18 08:08:07;;;;;;;5.00;2.10;;;27.40;99.90;;;;;;4935291;29;20040;-49
2022/09/18 08:10:34;;;;;;;5.18;2.40;;;27.40;99.90;;;;;;4935521;29;20111;-48
2022/09/18 08:13:01;;;;;;;6.43;2.28;;;27.40;99.90;;;;;;4935212;29;20043;-49
2022/09/18 08:15:28;;;;;;;2.33;1.63;;;27.40;99.90;;;;;;4935228;29;20086;-49
2022/09/18 08:17:53;;;;;;;2.95;1.70;;;27.40;99.90;;;;;;4933897;29;20032;-49
2022/09/18 08:20:19;;;;;;;5.88;2.17;;;27.40;99.90;;;;;;4934825;29;20107;-50
2022/09/18 08:22:46;;;;;;;7.03;2.05;;;27.50;99.90;;;;;;4935055;29;20503;-49
2022/09/18 08:25:12;;;;;;;4.40;1.92;;;27.50;99.90;;;;;;4935371;29;20030;-49
2022/09/18 08:27:38;;;;;;;4.60;2.28;;;27.50;99.90;;;;;;4935217;29;20027;-49
2022/09/18 08:30:06;;;;;;;5.82;2.30;;;27.50;99.90;;;;;;4935107;29;20020;-49
2022/09/18 08:32:32;;;;;;;4.07;2.60;;;27.60;99.90;;;;;;4934821;29;20034;-48
2022/09/18 08:35:02;;;;;;;3.40;2.30;;;27.50;99.90;;;;;;4934808;29;20106;-48
2022/09/18 08:37:29;;;;;;;7.70;2.65;;;27.60;99.90;;;;;;4934723;29;20420;-50
2022/09/18 08:39:55;;;;;;;6.93;2.95;;;27.60;99.90;;;;;;4934816;29;20090;-49
2022/09/18 08:42:29;;;;;;;4.47;2.85;;;27.60;99.90;;;;;;4934678;29;20043;-50
2022/09/18 08:45:02;;;;;;;4.18;2.70;;;27.60;99.90;;;;;;4934576;29;20019;-49
2022/09/18 08:47:37;;;;;;;5.85;2.75;;;27.60;99.90;;;;;;4934748;29;20098;-51
2022/09/18 08:50:15;;;;;;;3.67;2.50;;;27.60;99.90;;;;;;4934584;29;20034;-49
2022/09/18 08:52:47;;;;;;;8.70;4.15;;;27.70;99.90;;;;;;4934831;29;20027;-49
2022/09/18 08:55:26;;;;;;;10.57;4.22;;;27.70;99.90;;;;;;4934559;29;20531;-49
2022/09/18 08:57:58;;;;;;;6.78;3.30;;;27.70;99.90;;;;;;4934389;29;20024;-49
2022/09/18 09:00:30;;;;;;;7.07;3.13;;;27.70;99.90;;;;;;4934119;29;20547;-49
2022/09/18 09:03:24;;;;;;;6.55;2.83;;;27.80;99.90;;;;;;4934287;29;20138;-49
2022/09/18 09:06:01;;;;;;;4.72;2.25;;;27.80;99.90;;;;;;4934416;29;20019;-49
2022/09/18 09:08:54;;;;;;;5.30;2.10;;;27.80;99.90;;;;;;4934264;29;20409;-49
2022/09/18 09:11:57;;;;;;;7.43;2.33;;;27.80;99.90;;;;;;4934346;29;20396;-50
2022/09/18 09:15:01;;;;;;;4.78;1.77;;;27.90;99.90;;;;;;4934271;29;20036;-49
2022/09/18 09:17:52;;;;;;;8.02;2.05;;;27.90;99.90;;;;;;4933887;29;20138;-49
2022/09/18 09:20:44;;;;;;;4.95;1.88;;;27.90;99.90;;;;;;4934083;29;20024;-49
2022/09/18 09:23:47;;;;;;;6.88;1.88;;;27.90;99.90;;;;;;4934473;29;20436;-50
2022/09/18 09:26:20;;;;;;;4.97;1.75;;;27.90;99.90;;;;;;4934144;29;20023;-50
2022/09/18 09:29:05;;;;;;;5.60;2.00;;;27.90;99.90;;;;;;4934503;29;20055;-50
2022/09/18 09:31:58;;;;;;;6.25;2.72;;;27.90;99.90;;;;;;4933999;29;20028;-50
2022/09/18 09:34:26;;;;;;;7.07;2.28;;;27.90;99.90;;;;;;4934049;29;20025;-50
2022/09/18 09:36:55;;;;;;;6.10;2.42;;;27.70;99.90;;;;;;4934058;29;20036;-50
2022/09/18 09:39:39;;;;;;;8.95;4.78;;;27.70;99.90;;;;;;4933986;29;20028;-50
2022/09/18 09:42:15;;;;;;;10.40;4.97;;;27.60;99.90;;;;;;4933992;29;20607;-49
2022/09/18 09:44:52;;;;;;;9.57;5.32;;;27.60;99.90;;;;;;4933943;29;20031;-50
2022/09/18 09:47:46;;;;;;;9.00;6.07;;;27.50;99.90;;;;;;4934173;29;20420;-49
2022/09/18 09:50:29;;;;;;;10.25;6.53;;;27.50;99.90;;;;;;4901049;29;20400;-49
2022/09/18 09:52:58;;;;;;;9.63;3.58;;;27.40;99.90;;;;;;4933828;29;20070;-50
2022/09/18 09:55:30;;;;;;;6.78;3.70;;;27.40;99.90;;;;;;4933948;29;20024;-50
2022/09/18 09:58:04;;;;;;;4.00;1.88;;;27.40;99.90;;;;;;4934111;29;20070;-51
2022/09/18 10:00:38;;;;;;;9.07;2.20;;;27.40;99.90;;;;;;4933588;29;20091;-49
2022/09/18 10:03:31;;;;;;;9.10;2.15;;;27.40;99.90;;;;;;4933868;29;20087;-50
2022/09/18 10:06:21;;;;;;;10.55;3.80;;;27.40;99.90;;;;;;4933819;29;20464;-50
2022/09/18 10:08:55;;;;;;;6.05;2.90;;;27.50;99.90;;;;;;4933798;29;20111;-50
2022/09/18 10:11:22;;;;;;;7.10;2.92;;;27.50;99.90;;;;;;4933520;29;20080;-51
2022/09/18 10:13:59;;;;;;;11.50;3.80;;;27.50;99.90;;;;;;4933851;29;20063;-49
2022/09/18 10:16:32;;;;;;;9.73;3.00;;;27.50;99.90;;;;;;4933547;29;20028;-50
2022/09/18 10:18:59;;;;;;;7.57;2.67;;;27.40;99.90;;;;;;4933769;29;20551;-49
2022/09/18 10:21:27;;;;;;;14.02;2.60;;;27.40;99.90;;;;;;4933584;29;20502;-50
2022/09/18 10:24:15;;;;;;;10.48;3.42;;;27.40;99.90;;;;;;4933623;29;20042;-50
2022/09/18 10:27:09;;;;;;;8.77;3.40;;;27.30;99.90;;;;;;4933704;29;20897;-49
2022/09/18 10:29:34;;;;;;;9.52;3.72;;;27.30;99.90;;;;;;4933600;29;20444;-49
2022/09/18 10:32:00;;;;;;;7.80;2.83;;;27.20;99.90;;;;;;4933542;29;20062;-49
2022/09/18 10:34:40;;;;;;;13.20;4.60;;;27.20;99.90;;;;;;4933402;29;20663;-50
2022/09/18 10:37:13;;;;;;;14.85;8.70;;;27.20;99.90;;;;;;4933442;29;20051;-50
2022/09/18 10:39:48;;;;;;;8.55;4.65;;;27.20;99.90;;;;;;4933336;29;20377;-50
2022/09/18 10:42:18;;;;;;;14.63;5.68;;;27.10;99.90;;;;;;4933317;29;20071;-50
2022/09/18 10:44:57;;;;;;;10.68;3.03;;;27.10;99.90;;;;;;4934357;29;20036;-50
2022/09/18 10:47:26;;;;;;;9.32;2.50;;;27.10;99.90;;;;;;4937086;29;20046;-50
2022/09/18 10:49:56;;;;;;;12.93;3.13;;;27.10;99.90;;;;;;4937065;29;20106;-50
2022/09/18 10:52:39;;;;;;;10.52;3.67;;;27.10;99.90;;;;;;4937063;29;20057;-51
2022/09/18 10:55:05;;;;;;;11.40;5.40;;;27.00;99.90;;;;;;4936613;29;20031;-50
2022/09/18 10:57:34;;;;;;;10.48;3.15;;;27.00;99.90;;;;;;4929318;29;20507;-47
2022/09/18 11:00:07;;;;;;;7.50;3.08;;;27.00;99.90;;;;;;4924355;29;20052;-48
2022/09/18 11:02:39;;;;;;;9.30;3.42;;;27.00;99.90;;;;;;4918327;29;20048;-49
2022/09/18 11:05:14;;;;;;;10.48;3.58;;;27.00;99.90;;;;;;4926825;29;20132;-48
2022/09/18 11:07:49;;;;;;;6.57;2.67;;;27.00;99.90;;;;;;4917416;29;20033;-49
2022/09/18 11:10:18;;;;;;;14.10;2.90;;;27.00;99.90;;;;;;4925682;29;20201;-50
2022/09/18 11:12:53;;;;;;;15.27;3.53;;;27.00;99.90;;;;;;4934886;29;20039;-51
2022/09/18 11:15:28;;;;;;;9.32;4.05;;;27.00;99.90;;;;;;4935581;29;20383;-53
2022/09/18 11:17:57;;;;;;;12.90;3.63;;;27.00;99.90;;;;;;4934766;29;20390;-49
2022/09/18 11:20:43;;;;;;;19.45;6.43;;;27.10;99.90;;;;;;4935795;29;20572;-48
2022/09/18 11:23:26;;;;;;;18.15;9.70;;;27.20;99.90;;;;;;4933091;29;20063;-49
2022/09/18 11:26:19;;;;;;;13.32;4.38;;;27.30;99.90;;;;;;4936378;29;20028;-49
2022/09/18 11:29:04;;;;;;;16.75;6.47;;;27.30;99.90;;;;;;4928722;29;20050;-51
2022/09/18 11:31:46;;;;;;;11.05;4.63;;;27.30;99.90;;;;;;4935958;29;20016;-52
2022/09/18 11:34:34;;;;;;;15.35;3.90;;;27.30;99.90;;;;;;4935841;29;20032;-53
2022/09/18 11:37:05;;;;;;;13.48;2.85;;;27.30;99.90;;;;;;4935840;29;20078;-52
2022/09/18 11:39:49;;;;;;;11.85;3.70;;;27.40;99.90;;;;;;4935883;29;20105;-51
2022/09/18 11:42:16;;;;;;;16.75;5.93;;;27.40;99.90;;;;;;4934794;29;20539;-51
2022/09/18 11:44:42;;;;;;;13.52;3.58;;;27.40;99.90;;;;;;4935503;29;20036;-51
2022/09/18 11:47:29;;;;;;;12.32;3.67;;;27.40;99.90;;;;;;4935748;29;20031;-52
2022/09/18 11:50:11;;;;;;;10.23;3.83;;;27.40;99.90;;;;;;4935863;29;20020;-52
2022/09/18 11:53:05;;;;;;;15.32;4.68;;;27.40;99.90;;;;;;4935658;29;20023;-51
2022/09/18 11:55:39;;;;;;;12.85;3.40;;;27.40;99.90;;;;;;4925904;29;20055;-52
2022/09/18 11:58:14;;;;;;;13.70;4.20;;;27.40;99.90;;;;;;4934780;29;20126;-51
2022/09/18 12:01:16;;;;;;;13.18;5.05;;;27.50;99.90;;;;;;4935218;29;20052;-51
2022/09/18 12:03:52;;;;;;;15.35;3.70;;;27.60;99.90;;;;;;4935303;29;20042;-49
2022/09/18 12:06:50;;;;;;;13.95;3.63;;;27.60;99.90;;;;;;4935480;29;20484;-49
2022/09/18 12:09:39;;;;;;;10.23;3.95;;;27.70;99.90;;;;;;4935351;29;20031;-51
2022/09/18 12:12:18;;;;;;;13.27;3.97;;;27.70;99.90;;;;;;4935374;29;20114;-50
2022/09/18 12:15:09;;;;;;;9.57;4.13;;;27.80;99.90;;;;;;4935377;29;20016;-49
2022/09/18 12:17:54;;;;;;;13.77;3.35;;;27.90;99.90;;;;;;4929931;29;20024;-48
2022/09/18 12:20:20;;;;;;;11.77;2.90;;;28.00;99.90;;;;;;4917678;29;20450;-50
2022/09/18 12:22:55;;;;;;;11.40;3.13;;;28.10;99.90;;;;;;4914964;29;20028;-53
2022/09/18 12:25:26;;;;;;;22.35;4.57;;;28.20;99.90;;;;;;4916534;29;20020;-52
2022/09/18 12:28:03;;;;;;;14.40;3.20;;;28.20;99.90;;;;;;4931240;29;20042;-52
2022/09/18 12:30:37;;;;;;;;;;;28.30;99.90;;;;;;4931569;29;20028;-51
2022/09/18 12:33:03;;;;;;;25.35;6.97;;;28.30;99.90;;;;;;4930998;29;19997;-52
2022/09/18 12:36:06;;;;;;;10.07;2.70;;;28.30;99.90;;;;;;4927408;29;20111;-51
2022/09/18 12:38:53;;;;;;;12.13;3.30;;;28.30;99.90;;;;;;4927177;29;20222;-54
2022/09/18 12:41:39;;;;;;;14.85;2.70;;;28.30;99.90;;;;;;4922309;29;20127;-51
2022/09/18 12:44:32;;;;;;;11.23;2.65;;;28.30;99.90;;;;;;4926558;29;20035;-51
2022/09/18 12:47:43;;;;;;;17.00;5.22;;;28.40;99.90;;;;;;4924715;29;20032;-53
2022/09/18 12:50:11;;;;;;;11.45;2.80;;;28.50;99.90;;;;;;4926351;29;20035;-51
2022/09/18 12:52:53;;;;;;;13.05;3.47;;;28.60;99.90;;;;;;4930986;29;20038;-51
2022/09/18 12:55:21;;;;;;;13.70;3.15;;;28.60;99.90;;;;;;4926540;29;20039;-52
2022/09/18 12:58:19;;;;;;;10.68;3.08;;;28.70;99.90;;;;;;4925054;29;20036;-49
2022/09/18 13:00:49;;;;;;;15.13;4.18;;;28.70;99.90;;;;;;4926751;29;20058;-49
2022/09/18 13:03:27;;;;;;;11.70;3.42;;;28.80;99.90;;;;;;4926549;29;20036;-49
2022/09/18 13:05:59;;;;;;;16.75;3.53;;;28.80;99.90;;;;;;4919527;29;20387;-51
2022/09/18 13:08:46;;;;;;;17.15;4.53;;;28.80;99.90;;;;;;4927534;29;20032;-52
2022/09/18 13:11:38;;;;;;;12.75;2.83;;;28.90;99.90;;;;;;4919983;29;20120;-48
2022/09/18 13:14:18;;;;;;;14.02;3.60;;;28.80;99.90;;;;;;4928960;29;20032;-51
2022/09/18 13:16:58;;;;;;;11.50;3.42;;;28.70;99.90;;;;;;4919366;29;20035;-51
2022/09/18 13:19:49;;;;;;;14.38;3.10;;;28.80;99.90;;;;;;4929216;29;20480;-51